sensor_id;sensor_type;location;lat;lon;timestamp;temperature;humidity
13409;DHT22;6775;49.574;11.170;2023-09-07T00:01:45;16.80;99.90
13409;DHT22;6775;49.574;11.170;2023-09-07T00:04:13;16.70;99.90
13409;DHT22;6775;49.574;11.170;2023-09-07T00:06:42;16.70;99.90
13409;DHT22;6775;49.574;11.170;2023-09-07T00:09:10;16.70;99.90
13409;DHT22;6775;49.574;11.170;2023-09-07T00:11:39;16.70;99.90
13409;DHT22;6775;49.574;11.170;2023-09-07T00:14:07;16.60;99.90
13409;DHT22;6775;49.574;11.170;2023-09-07T00:16:35;16.60;99.90
13409;DHT22;6775;49.574;11.170;2023-09-07T00:19:06;16.50;99.90
13409;DHT22;6775;49.574;11.170;2023-09-07T00:21:34;16.40;99.90
13409;DHT22;6775;49.574;11.170;2023-09-07T00:24:03;16.40;99.90
13409;DHT22;6775;49.574;11.170;2023-09-07T00:26:32;16.40;99.90
13409;DHT22;6775;49.574;11.170;2023-09-07T00:29:00;16.50;99.90
13409;DHT22;6775;49.574;11.170;2023-09-07T00:31:29;16.50;99.90
13409;DHT22;6775;49.574;11.170;2023-09-07T00:33:57;16.50;99.90
13409;DHT22;6775;49.574;11.170;2023-09-07T00:36:26;16.50;99.90
13409;DHT22;6775;49.574;11.170;2023-09-07T00:38:54;16.40;99.90
13409;DHT22;6775;49.574;11.170;2023-09-07T00:41:22;16.30;99.90
13409;DHT22;6775;49.574;11.170;2023-09-07T00:43:50;16.30;99.90
13409;DHT22;6775;49.574;11.170;2023-09-07T00:46:18;16.30;99.90
13409;DHT22;6775;49.574;11.170;2023-09-07T00:48:47;16.30;99.90
13409;DHT22;6775;49.574;11.170;2023-09-07T00:51:16;16.20;99.90
13409;DHT22;6775;49.574;11.170;2023-09-07T00:53:46;16.20;99.90
13409;DHT22;6775;49.574;11.170;2023-09-07T00:56:14;16.10;99.90
13409;DHT22;6775;49.574;11.170;2023-09-07T00:58:42;16.10;99.90
13409;DHT22;6775;49.574;11.170;2023-09-07T01:01:10;16.10;99.90
13409;DHT22;6775;49.574;11.170;2023-09-07T01:03:38;16.10;99.90
13409;DHT22;6775;49.574;11.170;2023-09-07T01:06:13;16.10;99.90
13409;DHT22;6775;49.574;11.170;2023-09-07T01:08:49;16.10;99.90
13409;DHT22;6775;49.574;11.170;2023-09-07T01:11:19;16.10;99.90
13409;DHT22;6775;49.574;11.170;2023-09-07T01:13:49;16.20;99.90
13409;DHT22;6775;49.574;11.170;2023-09-07T01:16:19;16.30;99.90
13409;DHT22;6775;49.574;11.170;2023-09-07T01:18:48;16.40;99.90
13409;DHT22;6775;49.574;11.170;2023-09-07T01:21:18;16.40;99.90
13409;DHT22;6775;49.574;11.170;2023-09-07T01:23:49;16.40;99.90
13409;DHT22;6775;49.574;11.170;2023-09-07T01:26:18;16.40;99.90
13409;DHT22;6775;49.574;11.170;2023-09-07T01:28:46;16.40;99.90
13409;DHT22;6775;49.574;11.170;2023-09-07T01:31:15;16.30;99.90
13409;DHT22;6775;49.574;11.170;2023-09-07T01:33:44;16.20;99.90
13409;DHT22;6775;49.574;11.170;2023-09-07T01:36:12;16.10;99.90
13409;DHT22;6775;49.574;11.170;2023-09-07T01:38:40;16.10;99.90
13409;DHT22;6775;49.574;11.170;2023-09-07T01:41:09;16.00;99.90
13409;DHT22;6775;49.574;11.170;2023-09-07T01:43:37;15.90;99.90
13409;DHT22;6775;49.574;11.170;2023-09-07T01:46:06;15.90;99.90
13409;DHT22;6775;49.574;11.170;2023-09-07T01:48:34;15.90;99.90
13409;DHT22;6775;49.574;11.170;2023-09-07T01:51:03;15.90;99.90
13409;DHT22;6775;49.574;11.170;2023-09-07T01:53:31;15.80;99.90
13409;DHT22;6775;49.574;11.170;2023-09-07T01:55:59;15.80;99.90
13409;DHT22;6775;49.574;11.170;2023-09-07T01:58:29;15.70;99.90
13409;DHT22;6775;49.574;11.170;2023-09-07T02:00:58;15.70;99.90
13409;DHT22;6775;49.574;11.170;2023-09-07T02:03:26;15.60;99.90
13409;DHT22;6775;49.574;11.170;2023-09-07T02:05:54;15.60;99.90
13409;DHT22;6775;49.574;11.170;2023-09-07T02:08:22;15.60;99.90
13409;DHT22;6775;49.574;11.170;2023-09-07T02:10:50;15.60;99.90
13409;DHT22;6775;49.574;11.170;2023-09-07T02:13:18;15.60;99.90
13409;DHT22;6775;49.574;11.170;2023-09-07T02:15:48;15.60;99.90
13409;DHT22;6775;49.574;11.170;2023-09-07T02:18:16;15.50;99.90
13409;DHT22;6775;49.574;11.170;2023-09-07T02:20:44;15.40;99.90
13409;DHT22;6775;49.574;11.170;2023-09-07T02:23:12;15.30;99.90
13409;DHT22;6775;49.574;11.170;2023-09-07T02:25:41;15.30;99.90
13409;DHT22;6775;49.574;11.170;2023-09-07T02:28:09;15.10;99.90
13409;DHT22;6775;49.574;11.170;2023-09-07T02:30:37;15.00;99.90
13409;DHT22;6775;49.574;11.170;2023-09-07T02:33:07;15.00;99.90
13409;DHT22;6775;49.574;11.170;2023-09-07T02:35:36;14.80;99.90
13409;DHT22;6775;49.574;11.170;2023-09-07T02:38:05;14.80;99.90
13409;DHT22;6775;49.574;11.170;2023-09-07T02:40:33;14.70;99.90
13409;DHT22;6775;49.574;11.170;2023-09-07T02:43:08;14.60;99.90
13409;DHT22;6775;49.574;11.170;2023-09-07T02:45:36;14.60;99.90
13409;DHT22;6775;49.574;11.170;2023-09-07T02:48:06;14.70;99.90
13409;DHT22;6775;49.574;11.170;2023-09-07T02:50:34;14.70;99.90
13409;DHT22;6775;49.574;11.170;2023-09-07T02:53:03;14.70;99.90
13409;DHT22;6775;49.574;11.170;2023-09-07T02:55:31;14.60;99.90
13409;DHT22;6775;49.574;11.170;2023-09-07T02:57:59;14.50;99.90
13409;DHT22;6775;49.574;11.170;2023-09-07T03:00:30;14.50;99.90
13409;DHT22;6775;49.574;11.170;2023-09-07T03:02:58;14.60;99.90
13409;DHT22;6775;49.574;11.170;2023-09-07T03:05:28;14.60;99.90
13409;DHT22;6775;49.574;11.170;2023-09-07T03:07:56;14.70;99.90
13409;DHT22;6775;49.574;11.170;2023-09-07T03:10:24;14.80;99.90
13409;DHT22;6775;49.574;11.170;2023-09-07T03:12:52;15.00;99.90
13409;DHT22;6775;49.574;11.170;2023-09-07T03:15:21;15.20;99.90
13409;DHT22;6775;49.574;11.170;2023-09-07T03:17:49;15.30;99.90
13409;DHT22;6775;49.574;11.170;2023-09-07T03:20:18;15.40;99.90
13409;DHT22;6775;49.574;11.170;2023-09-07T03:22:48;15.40;99.90
13409;DHT22;6775;49.574;11.170;2023-09-07T03:25:16;15.20;99.90
13409;DHT22;6775;49.574;11.170;2023-09-07T03:27:44;15.00;99.90
13409;DHT22;6775;49.574;11.170;2023-09-07T03:30:12;14.80;99.90
13409;DHT22;6775;49.574;11.170;2023-09-07T03:32:40;14.70;99.90
13409;DHT22;6775;49.574;11.170;2023-09-07T03:35:08;14.50;99.90
13409;DHT22;6775;49.574;11.170;2023-09-07T03:37:37;14.40;99.90
13409;DHT22;6775;49.574;11.170;2023-09-07T03:40:08;14.40;99.90
13409;DHT22;6775;49.574;11.170;2023-09-07T03:42:36;14.40;99.90
13409;DHT22;6775;49.574;11.170;2023-09-07T03:45:06;14.40;99.90
13409;DHT22;6775;49.574;11.170;2023-09-07T03:47:34;14.50;99.90
13409;DHT22;6775;49.574;11.170;2023-09-07T03:50:03;14.60;99.90
13409;DHT22;6775;49.574;11.170;2023-09-07T03:52:32;14.60;99.90
13409;DHT22;6775;49.574;11.170;2023-09-07T03:55:01;14.70;99.90
13409;DHT22;6775;49.574;11.170;2023-09-07T03:57:29;14.70;99.90
13409;DHT22;6775;49.574;11.170;2023-09-07T03:59:59;14.70;99.90
13409;DHT22;6775;49.574;11.170;2023-09-07T04:02:27;14.80;99.90
13409;DHT22;6775;49.574;11.170;2023-09-07T04:04:56;14.80;99.90
13409;DHT22;6775;49.574;11.170;2023-09-07T04:07:24;14.80;99.90
13409;DHT22;6775;49.574;11.170;2023-09-07T04:09:52;14.80;99.90
13409;DHT22;6775;49.574;11.170;2023-09-07T04:12:20;14.60;99.90
13409;DHT22;6775;49.574;11.170;2023-09-07T04:14:50;14.40;99.90
13409;DHT22;6775;49.574;11.170;2023-09-07T04:17:18;14.40;99.90
13409;DHT22;6775;49.574;11.170;2023-09-07T04:19:46;14.20;99.90
13409;DHT22;6775;49.574;11.170;2023-09-07T04:22:14;14.10;99.90
13409;DHT22;6775;49.574;11.170;2023-09-07T04:24:42;14.20;99.90
13409;DHT22;6775;49.574;11.170;2023-09-07T04:27:10;14.30;99.90
13409;DHT22;6775;49.574;11.170;2023-09-07T04:29:38;14.30;99.90
13409;DHT22;6775;49.574;11.170;2023-09-07T04:32:07;14.40;99.90
13409;DHT22;6775;49.574;11.170;2023-09-07T04:34:35;14.50;99.90
13409;DHT22;6775;49.574;11.170;2023-09-07T04:37:03;14.50;99.90
13409;DHT22;6775;49.574;11.170;2023-09-07T04:39:31;14.40;99.90
13409;DHT22;6775;49.574;11.170;2023-09-07T04:41:59;14.30;99.90
13409;DHT22;6775;49.574;11.170;2023-09-07T04:44:28;14.20;99.90
13409;DHT22;6775;49.574;11.170;2023-09-07T04:46:56;14.20;99.90
13409;DHT22;6775;49.574;11.170;2023-09-07T04:49:25;14.20;99.90
13409;DHT22;6775;49.574;11.170;2023-09-07T04:51:53;14.20;99.90
13409;DHT22;6775;49.574;11.170;2023-09-07T04:54:21;14.20;99.90
13409;DHT22;6775;49.574;11.170;2023-09-07T04:56:49;14.20;99.90
13409;DHT22;6775;49.574;11.170;2023-09-07T04:59:18;14.20;99.90
13409;DHT22;6775;49.574;11.170;2023-09-07T05:01:46;14.30;99.90
13409;DHT22;6775;49.574;11.170;2023-09-07T05:04:14;14.30;99.90
13409;DHT22;6775;49.574;11.170;2023-09-07T05:06:43;14.30;99.90
13409;DHT22;6775;49.574;11.170;2023-09-07T05:09:12;14.40;99.90
13409;DHT22;6775;49.574;11.170;2023-09-07T05:11:39;14.50;99.90
13409;DHT22;6775;49.574;11.170;2023-09-07T05:14:07;14.60;99.90
13409;DHT22;6775;49.574;11.170;2023-09-07T05:16:35;14.60;99.90
13409;DHT22;6775;49.574;11.170;2023-09-07T05:19:04;14.70;99.90
13409;DHT22;6775;49.574;11.170;2023-09-07T05:21:32;14.80;99.90
13409;DHT22;6775;49.574;11.170;2023-09-07T05:24:01;14.90;99.90
13409;DHT22;6775;49.574;11.170;2023-09-07T05:26:30;15.00;99.90
13409;DHT22;6775;49.574;11.170;2023-09-07T05:28:58;15.10;99.90
13409;DHT22;6775;49.574;11.170;2023-09-07T05:31:26;15.20;99.90
13409;DHT22;6775;49.574;11.170;2023-09-07T05:33:54;15.30;99.90
13409;DHT22;6775;49.574;11.170;2023-09-07T05:36:22;15.30;99.90
13409;DHT22;6775;49.574;11.170;2023-09-07T05:38:50;15.40;99.90
13409;DHT22;6775;49.574;11.170;2023-09-07T05:41:19;15.40;99.90
13409;DHT22;6775;49.574;11.170;2023-09-07T05:43:47;15.50;99.90
13409;DHT22;6775;49.574;11.170;2023-09-07T05:46:16;15.60;99.90
13409;DHT22;6775;49.574;11.170;2023-09-07T05:48:44;15.70;99.90
13409;DHT22;6775;49.574;11.170;2023-09-07T05:51:12;15.80;99.90
13409;DHT22;6775;49.574;11.170;2023-09-07T05:53:40;15.90;99.90
13409;DHT22;6775;49.574;11.170;2023-09-07T05:56:08;16.00;99.90
13409;DHT22;6775;49.574;11.170;2023-09-07T05:58:37;16.10;99.90
13409;DHT22;6775;49.574;11.170;2023-09-07T06:01:05;16.30;99.90
13409;DHT22;6775;49.574;11.170;2023-09-07T06:03:34;16.40;99.90
13409;DHT22;6775;49.574;11.170;2023-09-07T06:06:03;16.50;99.90
13409;DHT22;6775;49.574;11.170;2023-09-07T06:08:30;16.60;99.90
13409;DHT22;6775;49.574;11.170;2023-09-07T06:10:59;16.70;99.90
13409;DHT22;6775;49.574;11.170;2023-09-07T06:13:27;16.90;99.90
13409;DHT22;6775;49.574;11.170;2023-09-07T06:15:56;17.00;99.90
13409;DHT22;6775;49.574;11.170;2023-09-07T06:18:27;17.10;99.90
13409;DHT22;6775;49.574;11.170;2023-09-07T06:20:55;17.30;99.90
13409;DHT22;6775;49.574;11.170;2023-09-07T06:23:24;17.40;99.90
13409;DHT22;6775;49.574;11.170;2023-09-07T06:25:52;17.50;99.90
13409;DHT22;6775;49.574;11.170;2023-09-07T06:28:19;17.70;99.90
13409;DHT22;6775;49.574;11.170;2023-09-07T06:30:48;17.80;99.90
13409;DHT22;6775;49.574;11.170;2023-09-07T06:33:18;17.90;99.90
13409;DHT22;6775;49.574;11.170;2023-09-07T06:35:46;18.10;99.90
13409;DHT22;6775;49.574;11.170;2023-09-07T06:38:14;18.30;99.90
13409;DHT22;6775;49.574;11.170;2023-09-07T06:40:47;18.40;99.90
13409;DHT22;6775;49.574;11.170;2023-09-07T06:43:16;18.50;99.90
13409;DHT22;6775;49.574;11.170;2023-09-07T06:45:44;18.70;99.90
13409;DHT22;6775;49.574;11.170;2023-09-07T06:48:12;18.80;99.90
13409;DHT22;6775;49.574;11.170;2023-09-07T06:50:41;19.00;99.90
13409;DHT22;6775;49.574;11.170;2023-09-07T06:53:10;19.10;99.90
13409;DHT22;6775;49.574;11.170;2023-09-07T06:55:38;19.20;99.90
13409;DHT22;6775;49.574;11.170;2023-09-07T06:58:06;19.30;99.90
13409;DHT22;6775;49.574;11.170;2023-09-07T07:00:34;19.40;99.90
13409;DHT22;6775;49.574;11.170;2023-09-07T07:03:02;19.60;99.90
13409;DHT22;6775;49.574;11.170;2023-09-07T07:05:31;19.70;99.90
13409;DHT22;6775;49.574;11.170;2023-09-07T07:08:02;19.80;99.90
13409;DHT22;6775;49.574;11.170;2023-09-07T07:10:30;19.90;99.90
13409;DHT22;6775;49.574;11.170;2023-09-07T07:12:58;20.10;99.90
13409;DHT22;6775;49.574;11.170;2023-09-07T07:15:26;20.20;99.90
13409;DHT22;6775;49.574;11.170;2023-09-07T07:17:54;20.40;99.90
13409;DHT22;6775;49.574;11.170;2023-09-07T07:20:22;20.60;99.90
13409;DHT22;6775;49.574;11.170;2023-09-07T07:22:50;20.80;99.90
13409;DHT22;6775;49.574;11.170;2023-09-07T07:25:20;20.80;99.90
13409;DHT22;6775;49.574;11.170;2023-09-07T07:27:48;20.90;99.90
13409;DHT22;6775;49.574;11.170;2023-09-07T07:30:16;21.00;99.90
13409;DHT22;6775;49.574;11.170;2023-09-07T07:32:44;21.10;99.90
13409;DHT22;6775;49.574;11.170;2023-09-07T07:35:12;21.20;99.90
13409;DHT22;6775;49.574;11.170;2023-09-07T07:37:41;21.40;99.90
13409;DHT22;6775;49.574;11.170;2023-09-07T07:40:10;21.40;99.90
13409;DHT22;6775;49.574;11.170;2023-09-07T07:42:40;21.60;99.90
13409;DHT22;6775;49.574;11.170;2023-09-07T07:45:09;21.60;99.90
13409;DHT22;6775;49.574;11.170;2023-09-07T07:47:40;21.70;99.90
13409;DHT22;6775;49.574;11.170;2023-09-07T07:50:09;21.80;99.90
13409;DHT22;6775;49.574;11.170;2023-09-07T07:52:37;21.80;99.90
13409;DHT22;6775;49.574;11.170;2023-09-07T07:55:05;21.90;99.90
13409;DHT22;6775;49.574;11.170;2023-09-07T07:57:33;21.90;99.90
13409;DHT22;6775;49.574;11.170;2023-09-07T08:00:04;21.90;99.90
13409;DHT22;6775;49.574;11.170;2023-09-07T08:02:35;22.00;99.90
13409;DHT22;6775;49.574;11.170;2023-09-07T08:05:05;22.20;99.90
13409;DHT22;6775;49.574;11.170;2023-09-07T08:07:33;22.40;99.90
13409;DHT22;6775;49.574;11.170;2023-09-07T08:10:01;22.70;99.90
13409;DHT22;6775;49.574;11.170;2023-09-07T08:12:29;22.80;99.90
13409;DHT22;6775;49.574;11.170;2023-09-07T08:14:57;23.00;99.90
13409;DHT22;6775;49.574;11.170;2023-09-07T08:17:27;23.20;99.90
13409;DHT22;6775;49.574;11.170;2023-09-07T08:19:55;23.50;99.90
13409;DHT22;6775;49.574;11.170;2023-09-07T08:22:23;23.70;99.90
13409;DHT22;6775;49.574;11.170;2023-09-07T08:24:51;23.90;99.90
13409;DHT22;6775;49.574;11.170;2023-09-07T08:27:20;24.10;99.90
13409;DHT22;6775;49.574;11.170;2023-09-07T08:29:48;24.40;99.90
13409;DHT22;6775;49.574;11.170;2023-09-07T08:32:18;24.60;99.90
13409;DHT22;6775;49.574;11.170;2023-09-07T08:34:47;24.70;99.90
13409;DHT22;6775;49.574;11.170;2023-09-07T08:37:15;24.80;99.90
13409;DHT22;6775;49.574;11.170;2023-09-07T08:39:43;25.20;99.90
13409;DHT22;6775;49.574;11.170;2023-09-07T08:42:12;25.40;99.90
13409;DHT22;6775;49.574;11.170;2023-09-07T08:44:42;25.60;99.90
13409;DHT22;6775;49.574;11.170;2023-09-07T08:47:14;25.70;99.90
13409;DHT22;6775;49.574;11.170;2023-09-07T08:49:44;25.90;99.90
13409;DHT22;6775;49.574;11.170;2023-09-07T08:52:15;26.10;99.90
13409;DHT22;6775;49.574;11.170;2023-09-07T08:54:45;26.40;99.90
13409;DHT22;6775;49.574;11.170;2023-09-07T08:57:15;26.60;99.90
13409;DHT22;6775;49.574;11.170;2023-09-07T08:59:44;26.80;99.90
13409;DHT22;6775;49.574;11.170;2023-09-07T09:02:12;27.00;99.90
13409;DHT22;6775;49.574;11.170;2023-09-07T09:04:40;27.20;99.90
13409;DHT22;6775;49.574;11.170;2023-09-07T09:07:10;27.30;99.90
13409;DHT22;6775;49.574;11.170;2023-09-07T09:09:37;27.50;99.90
13409;DHT22;6775;49.574;11.170;2023-09-07T09:12:09;27.60;99.90
13409;DHT22;6775;49.574;11.170;2023-09-07T09:14:39;27.50;99.90
13409;DHT22;6775;49.574;11.170;2023-09-07T09:17:11;27.60;99.90
13409;DHT22;6775;49.574;11.170;2023-09-07T09:19:40;27.80;99.80
13409;DHT22;6775;49.574;11.170;2023-09-07T09:22:11;27.80;99.90
13409;DHT22;6775;49.574;11.170;2023-09-07T09:24:40;27.90;99.90
13409;DHT22;6775;49.574;11.170;2023-09-07T09:27:08;28.10;99.70
13409;DHT22;6775;49.574;11.170;2023-09-07T09:29:36;28.20;99.90
13409;DHT22;6775;49.574;11.170;2023-09-07T09:32:05;28.30;99.70
13409;DHT22;6775;49.574;11.170;2023-09-07T09:34:36;28.50;98.60
13409;DHT22;6775;49.574;11.170;2023-09-07T09:37:14;28.60;98.20
13409;DHT22;6775;49.574;11.170;2023-09-07T09:39:43;28.80;98.10
13409;DHT22;6775;49.574;11.170;2023-09-07T09:42:16;28.90;98.10
13409;DHT22;6775;49.574;11.170;2023-09-07T09:44:45;28.90;97.90
13409;DHT22;6775;49.574;11.170;2023-09-07T09:47:17;28.90;97.90
13409;DHT22;6775;49.574;11.170;2023-09-07T09:49:47;29.00;97.40
13409;DHT22;6775;49.574;11.170;2023-09-07T09:52:18;29.00;96.90
13409;DHT22;6775;49.574;11.170;2023-09-07T09:54:47;29.10;97.60
13409;DHT22;6775;49.574;11.170;2023-09-07T09:57:17;29.20;97.30
13409;DHT22;6775;49.574;11.170;2023-09-07T09:59:45;29.30;96.50
13409;DHT22;6775;49.574;11.170;2023-09-07T10:02:13;29.40;96.60
13409;DHT22;6775;49.574;11.170;2023-09-07T10:04:41;29.40;95.60
13409;DHT22;6775;49.574;11.170;2023-09-07T10:07:09;29.50;95.30
13409;DHT22;6775;49.574;11.170;2023-09-07T10:09:39;29.50;95.30
13409;DHT22;6775;49.574;11.170;2023-09-07T10:12:11;29.60;95.50
13409;DHT22;6775;49.574;11.170;2023-09-07T10:14:44;29.60;95.10
13409;DHT22;6775;49.574;11.170;2023-09-07T10:17:22;29.70;95.00
13409;DHT22;6775;49.574;11.170;2023-09-07T10:20:01;29.80;94.90
13409;DHT22;6775;49.574;11.170;2023-09-07T10:22:31;29.90;95.20
13409;DHT22;6775;49.574;11.170;2023-09-07T10:25:01;29.90;94.90
13409;DHT22;6775;49.574;11.170;2023-09-07T10:27:36;30.00;94.10
13409;DHT22;6775;49.574;11.170;2023-09-07T10:30:10;30.00;92.80
13409;DHT22;6775;49.574;11.170;2023-09-07T10:32:39;30.00;92.70
13409;DHT22;6775;49.574;11.170;2023-09-07T10:35:13;30.10;93.00
13409;DHT22;6775;49.574;11.170;2023-09-07T10:37:44;30.10;92.60
13409;DHT22;6775;49.574;11.170;2023-09-07T10:40:20;30.00;92.70
13409;DHT22;6775;49.574;11.170;2023-09-07T10:42:49;30.20;91.90
13409;DHT22;6775;49.574;11.170;2023-09-07T10:45:28;30.20;92.00
13409;DHT22;6775;49.574;11.170;2023-09-07T10:47:56;30.20;90.90
13409;DHT22;6775;49.574;11.170;2023-09-07T10:50:24;30.30;91.20
13409;DHT22;6775;49.574;11.170;2023-09-07T10:52:53;30.40;90.60
13409;DHT22;6775;49.574;11.170;2023-09-07T10:55:23;30.50;90.10
13409;DHT22;6775;49.574;11.170;2023-09-07T10:57:54;30.40;89.90
13409;DHT22;6775;49.574;11.170;2023-09-07T11:00:22;30.40;90.70
13409;DHT22;6775;49.574;11.170;2023-09-07T11:02:50;30.40;91.50
13409;DHT22;6775;49.574;11.170;2023-09-07T11:05:18;30.50;90.70
13409;DHT22;6775;49.574;11.170;2023-09-07T11:07:46;30.50;88.30
13409;DHT22;6775;49.574;11.170;2023-09-07T11:10:15;30.60;87.90
13409;DHT22;6775;49.574;11.170;2023-09-07T11:12:46;30.60;87.80
13409;DHT22;6775;49.574;11.170;2023-09-07T11:15:15;30.60;86.10
13409;DHT22;6775;49.574;11.170;2023-09-07T11:17:44;30.60;84.30
13409;DHT22;6775;49.574;11.170;2023-09-07T11:20:12;30.70;84.70
13409;DHT22;6775;49.574;11.170;2023-09-07T11:22:41;30.70;84.80
13409;DHT22;6775;49.574;11.170;2023-09-07T11:25:34;30.70;85.30
13409;DHT22;6775;49.574;11.170;2023-09-07T11:28:06;30.80;85.30
13409;DHT22;6775;49.574;11.170;2023-09-07T11:30:35;30.90;82.50
13409;DHT22;6775;49.574;11.170;2023-09-07T11:33:04;30.90;83.30
13409;DHT22;6775;49.574;11.170;2023-09-07T11:35:34;30.80;80.50
13409;DHT22;6775;49.574;11.170;2023-09-07T11:38:03;30.50;84.90
13409;DHT22;6775;49.574;11.170;2023-09-07T11:40:33;30.40;83.90
13409;DHT22;6775;49.574;11.170;2023-09-07T11:43:02;30.40;84.80
13409;DHT22;6775;49.574;11.170;2023-09-07T11:45:31;30.50;80.00
13409;DHT22;6775;49.574;11.170;2023-09-07T11:48:00;30.50;80.50
13409;DHT22;6775;49.574;11.170;2023-09-07T11:50:28;30.50;81.00
13409;DHT22;6775;49.574;11.170;2023-09-07T11:52:56;30.60;82.90
13409;DHT22;6775;49.574;11.170;2023-09-07T11:55:24;30.70;83.30
13409;DHT22;6775;49.574;11.170;2023-09-07T11:57:52;30.90;83.30
13409;DHT22;6775;49.574;11.170;2023-09-07T12:00:20;30.80;78.00
13409;DHT22;6775;49.574;11.170;2023-09-07T12:02:50;30.80;76.50
13409;DHT22;6775;49.574;11.170;2023-09-07T12:05:18;30.80;76.40
13409;DHT22;6775;49.574;11.170;2023-09-07T12:07:46;30.80;77.60
13409;DHT22;6775;49.574;11.170;2023-09-07T12:10:14;30.70;75.90
13409;DHT22;6775;49.574;11.170;2023-09-07T12:12:43;30.70;77.30
13409;DHT22;6775;49.574;11.170;2023-09-07T12:15:11;30.70;79.10
13409;DHT22;6775;49.574;11.170;2023-09-07T12:17:40;30.50;77.80
13409;DHT22;6775;49.574;11.170;2023-09-07T12:20:10;30.50;80.90
13409;DHT22;6775;49.574;11.170;2023-09-07T12:22:41;30.50;76.70
13409;DHT22;6775;49.574;11.170;2023-09-07T12:25:09;30.20;77.10
13409;DHT22;6775;49.574;11.170;2023-09-07T12:27:41;30.00;78.90
13409;DHT22;6775;49.574;11.170;2023-09-07T12:30:21;30.20;79.50
13409;DHT22;6775;49.574;11.170;2023-09-07T12:32:51;30.40;80.60
13409;DHT22;6775;49.574;11.170;2023-09-07T12:35:21;30.50;80.90
13409;DHT22;6775;49.574;11.170;2023-09-07T12:37:49;30.70;79.60
13409;DHT22;6775;49.574;11.170;2023-09-07T12:40:17;30.60;78.70
13409;DHT22;6775;49.574;11.170;2023-09-07T12:42:46;30.70;77.60
13409;DHT22;6775;49.574;11.170;2023-09-07T12:45:14;30.70;79.90
13409;DHT22;6775;49.574;11.170;2023-09-07T12:47:42;30.70;80.70
13409;DHT22;6775;49.574;11.170;2023-09-07T12:50:11;30.80;80.10
13409;DHT22;6775;49.574;11.170;2023-09-07T12:52:41;30.90;80.80
13409;DHT22;6775;49.574;11.170;2023-09-07T12:55:09;31.00;79.70
13409;DHT22;6775;49.574;11.170;2023-09-07T12:57:37;31.00;80.70
13409;DHT22;6775;49.574;11.170;2023-09-07T13:00:06;31.10;80.20
13409;DHT22;6775;49.574;11.170;2023-09-07T13:02:35;31.00;78.90
13409;DHT22;6775;49.574;11.170;2023-09-07T13:05:03;30.90;79.10
13409;DHT22;6775;49.574;11.170;2023-09-07T13:07:32;30.90;80.80
13409;DHT22;6775;49.574;11.170;2023-09-07T13:10:04;30.90;80.10
13409;DHT22;6775;49.574;11.170;2023-09-07T13:12:33;30.90;79.80
13409;DHT22;6775;49.574;11.170;2023-09-07T13:15:01;30.90;80.90
13409;DHT22;6775;49.574;11.170;2023-09-07T13:17:29;30.90;82.20
13409;DHT22;6775;49.574;11.170;2023-09-07T13:19:57;30.90;80.70
13409;DHT22;6775;49.574;11.170;2023-09-07T13:22:25;30.90;79.00
13409;DHT22;6775;49.574;11.170;2023-09-07T13:24:53;30.80;80.60
13409;DHT22;6775;49.574;11.170;2023-09-07T13:27:22;30.80;81.60
13409;DHT22;6775;49.574;11.170;2023-09-07T13:29:52;30.70;74.40
13409;DHT22;6775;49.574;11.170;2023-09-07T13:32:20;30.70;77.70
13409;DHT22;6775;49.574;11.170;2023-09-07T13:34:48;30.70;78.00
13409;DHT22;6775;49.574;11.170;2023-09-07T13:37:16;30.60;80.30
13409;DHT22;6775;49.574;11.170;2023-09-07T13:39:44;30.50;80.00
13409;DHT22;6775;49.574;11.170;2023-09-07T13:42:12;30.40;79.70
13409;DHT22;6775;49.574;11.170;2023-09-07T13:44:42;30.40;77.50
13409;DHT22;6775;49.574;11.170;2023-09-07T13:47:12;30.40;77.60
13409;DHT22;6775;49.574;11.170;2023-09-07T13:49:40;30.40;76.80
13409;DHT22;6775;49.574;11.170;2023-09-07T13:52:08;30.40;78.90
13409;DHT22;6775;49.574;11.170;2023-09-07T13:54:36;30.40;79.60
13409;DHT22;6775;49.574;11.170;2023-09-07T13:57:04;30.40;80.90
13409;DHT22;6775;49.574;11.170;2023-09-07T13:59:33;30.40;81.80
13409;DHT22;6775;49.574;11.170;2023-09-07T14:02:04;30.30;80.60
13409;DHT22;6775;49.574;11.170;2023-09-07T14:04:32;30.30;81.00
13409;DHT22;6775;49.574;11.170;2023-09-07T14:07:00;30.20;79.10
13409;DHT22;6775;49.574;11.170;2023-09-07T14:09:28;30.00;78.80
13409;DHT22;6775;49.574;11.170;2023-09-07T14:11:56;29.90;78.00
13409;DHT22;6775;49.574;11.170;2023-09-07T14:14:24;29.90;76.70
13409;DHT22;6775;49.574;11.170;2023-09-07T14:16:52;29.80;78.00
13409;DHT22;6775;49.574;11.170;2023-09-07T14:19:26;29.70;79.60
13409;DHT22;6775;49.574;11.170;2023-09-07T14:21:57;29.60;79.50
13409;DHT22;6775;49.574;11.170;2023-09-07T14:24:25;29.50;80.10
13409;DHT22;6775;49.574;11.170;2023-09-07T14:26:54;29.40;79.80
13409;DHT22;6775;49.574;11.170;2023-09-07T14:29:22;29.40;79.50
13409;DHT22;6775;49.574;11.170;2023-09-07T14:31:50;29.30;81.60
13409;DHT22;6775;49.574;11.170;2023-09-07T14:34:18;29.30;81.40
13409;DHT22;6775;49.574;11.170;2023-09-07T14:36:47;29.30;81.10
13409;DHT22;6775;49.574;11.170;2023-09-07T14:39:15;29.20;79.00
13409;DHT22;6775;49.574;11.170;2023-09-07T14:41:47;29.20;80.30
13409;DHT22;6775;49.574;11.170;2023-09-07T14:44:15;29.10;80.20
13409;DHT22;6775;49.574;11.170;2023-09-07T14:46:47;29.00;80.00
13409;DHT22;6775;49.574;11.170;2023-09-07T14:49:17;28.90;81.80
13409;DHT22;6775;49.574;11.170;2023-09-07T14:51:46;28.80;82.00
13409;DHT22;6775;49.574;11.170;2023-09-07T14:54:14;28.80;82.10
13409;DHT22;6775;49.574;11.170;2023-09-07T14:56:42;28.70;82.00
13409;DHT22;6775;49.574;11.170;2023-09-07T14:59:11;28.70;81.30
13409;DHT22;6775;49.574;11.170;2023-09-07T15:01:39;28.60;79.70
13409;DHT22;6775;49.574;11.170;2023-09-07T15:04:07;28.50;80.90
13409;DHT22;6775;49.574;11.170;2023-09-07T15:06:35;28.40;80.50
13409;DHT22;6775;49.574;11.170;2023-09-07T15:09:05;28.30;80.60
13409;DHT22;6775;49.574;11.170;2023-09-07T15:11:33;28.30;80.80
13409;DHT22;6775;49.574;11.170;2023-09-07T15:14:01;28.20;78.00
13409;DHT22;6775;49.574;11.170;2023-09-07T15:16:31;28.10;78.20
13409;DHT22;6775;49.574;11.170;2023-09-07T15:18:59;28.10;81.10
13409;DHT22;6775;49.574;11.170;2023-09-07T15:21:29;28.00;80.50
13409;DHT22;6775;49.574;11.170;2023-09-07T15:23:57;28.00;81.60
13409;DHT22;6775;49.574;11.170;2023-09-07T15:26:27;27.90;81.80
13409;DHT22;6775;49.574;11.170;2023-09-07T15:28:55;27.90;81.50
13409;DHT22;6775;49.574;11.170;2023-09-07T15:31:23;27.80;81.50
13409;DHT22;6775;49.574;11.170;2023-09-07T15:33:51;27.80;80.50
13409;DHT22;6775;49.574;11.170;2023-09-07T15:36:19;27.70;81.30
13409;DHT22;6775;49.574;11.170;2023-09-07T15:38:47;27.70;81.80
13409;DHT22;6775;49.574;11.170;2023-09-07T15:41:17;27.60;81.50